createdAt,value
2018-03-06T00:00:27.375Z,6.7
2018-03-06T00:01:28.677Z,6.7
2018-03-06T00:02:30.035Z,6.7
2018-03-06T00:03:31.386Z,6.6
2018-03-06T00:04:32.730Z,6.6
2018-03-06T00:05:34.118Z,6.5
2018-03-06T00:06:35.423Z,6.4
2018-03-06T00:07:36.782Z,6.4
2018-03-06T00:08:38.133Z,6.4
2018-03-06T00:09:39.484Z,6.4
2018-03-06T00:10:40.838Z,6.3
2018-03-06T00:11:42.194Z,6.3
2018-03-06T00:12:43.546Z,6.3
2018-03-06T00:13:44.895Z,6.3
2018-03-06T00:14:46.202Z,6.3
2018-03-06T00:15:47.550Z,6.3
2018-03-06T00:16:48.936Z,6.4
2018-03-06T00:17:50.248Z,6.4
2018-03-06T00:18:51.602Z,6.3
2018-03-06T00:19:52.954Z,6.3
2018-03-06T00:20:54.295Z,6.3
2018-03-06T00:21:55.638Z,6.2
2018-03-06T00:22:56.983Z,6.3
2018-03-06T00:23:58.339Z,6.4
2018-03-06T00:24:59.681Z,6.3
2018-03-06T00:26:01.032Z,6.4
2018-03-06T00:27:02.379Z,6.4
2018-03-06T00:28:04.349Z,6.4
2018-03-06T00:29:05.696Z,6.4
2018-03-06T00:30:07.048Z,6.4
2018-03-06T00:31:08.391Z,6.4
2018-03-06T00:32:09.742Z,6.4
2018-03-06T00:33:11.091Z,6.4
2018-03-06T00:34:12.440Z,6.5
2018-03-06T00:35:13.784Z,6.5
2018-03-06T00:36:15.134Z,6.6
2018-03-06T00:37:16.483Z,6.5
2018-03-06T00:38:17.828Z,6.4
2018-03-06T00:39:19.132Z,6.4
2018-03-06T00:40:20.562Z,6.4
2018-03-06T00:41:21.922Z,6.4
2018-03-06T00:42:23.260Z,6.3
2018-03-06T00:43:24.610Z,6.3
2018-03-06T00:44:26.017Z,6.4
2018-03-06T00:45:27.265Z,6.4
2018-03-06T00:46:28.613Z,6.4
2018-03-06T00:47:29.969Z,6.3
2018-03-06T00:48:31.313Z,6.4
2018-03-06T00:49:32.619Z,6.3
2018-03-06T00:50:33.983Z,6.3
2018-03-06T00:51:35.333Z,6.3
2018-03-06T00:52:36.679Z,6.3
2018-03-06T00:53:38.038Z,6.3
2018-03-06T00:54:39.373Z,6.3
2018-03-06T00:55:40.711Z,6.2
2018-03-06T00:56:42.055Z,6.2
2018-03-06T00:57:43.406Z,6.1
2018-03-06T00:58:45.470Z,6.2
2018-03-06T00:59:46.821Z,6.1
2018-03-06T01:00:48.123Z,6.1
2018-03-06T01:01:49.475Z,6.1
2018-03-06T01:02:50.882Z,6.1
2018-03-06T01:03:52.224Z,6.1
2018-03-06T01:04:53.537Z,6.0
2018-03-06T01:05:54.881Z,6.0
2018-03-06T01:06:56.228Z,6.0
2018-03-06T01:07:57.575Z,5.9
2018-03-06T01:08:58.927Z,5.9
2018-03-06T01:10:00.271Z,5.9
2018-03-06T01:11:01.613Z,5.9
2018-03-06T01:12:02.920Z,5.9
2018-03-06T01:13:04.267Z,5.9
2018-03-06T01:14:05.636Z,5.9
2018-03-06T01:15:06.980Z,5.9
2018-03-06T01:16:08.288Z,5.7
2018-03-06T01:17:09.636Z,5.8
2018-03-06T01:18:10.988Z,5.8
2018-03-06T01:19:12.332Z,5.7
2018-03-06T01:20:13.688Z,5.7
2018-03-06T01:21:15.036Z,5.7
2018-03-06T01:22:16.384Z,5.6
2018-03-06T01:23:17.731Z,5.6
2018-03-06T01:24:19.082Z,5.6
2018-03-06T01:25:20.419Z,5.5
2018-03-06T01:26:21.772Z,5.5
2018-03-06T01:27:23.111Z,5.4
2018-03-06T01:28:24.457Z,5.4
2018-03-06T01:29:25.808Z,5.4
2018-03-06T01:30:27.156Z,5.3
2018-03-06T01:31:28.505Z,5.4
2018-03-06T01:32:29.848Z,5.3
2018-03-06T01:33:31.204Z,5.3
2018-03-06T01:34:32.555Z,5.2
2018-03-06T01:35:35.749Z,5.2
2018-03-06T01:36:37.111Z,5.2
2018-03-06T01:37:38.453Z,5.2
2018-03-06T01:38:39.802Z,5.2
2018-03-06T01:39:41.149Z,5.2
2018-03-06T01:40:42.497Z,5.2
2018-03-06T01:41:43.860Z,5.2
2018-03-06T01:42:45.212Z,5.3
2018-03-06T01:43:46.551Z,5.3
2018-03-06T01:44:47.900Z,5.2
2018-03-06T01:45:49.253Z,5.2
2018-03-06T01:46:50.613Z,5.2
2018-03-06T01:47:51.932Z,5.2
2018-03-06T01:48:53.282Z,5.1
2018-03-06T01:49:54.632Z,5.2
2018-03-06T01:50:56.070Z,5.2
2018-03-06T01:51:57.431Z,5.2
2018-03-06T01:52:58.734Z,5.2
2018-03-06T01:54:00.085Z,5.3
2018-03-06T01:55:01.431Z,5.3
2018-03-06T01:56:02.779Z,5.3
2018-03-06T01:57:04.161Z,5.3
2018-03-06T01:58:05.508Z,5.4
2018-03-06T01:59:06.852Z,5.3
2018-03-06T02:00:08.200Z,5.3
2018-03-06T02:01:09.550Z,5.4
2018-03-06T02:02:10.899Z,5.3
2018-03-06T02:03:12.255Z,5.4
2018-03-06T02:04:13.560Z,5.3
2018-03-06T02:05:14.907Z,5.4
2018-03-06T02:06:16.251Z,5.4
2018-03-06T02:07:17.595Z,5.4
2018-03-06T02:08:18.905Z,5.3
2018-03-06T02:09:20.249Z,5.3
2018-03-06T02:10:21.594Z,5.3
2018-03-06T02:11:22.945Z,5.2
2018-03-06T02:12:24.310Z,5.2
2018-03-06T02:13:25.634Z,5.1
2018-03-06T02:14:26.987Z,5.1
2018-03-06T02:15:28.333Z,5.0
2018-03-06T02:16:29.680Z,5.0
2018-03-06T02:17:31.024Z,4.8
2018-03-06T02:18:32.372Z,4.9
2018-03-06T02:19:34.475Z,4.8
2018-03-06T02:20:35.821Z,4.7
2018-03-06T02:21:37.165Z,4.6
2018-03-06T02:22:38.506Z,4.5
2018-03-06T02:23:39.853Z,4.6
2018-03-06T02:24:41.195Z,4.4
2018-03-06T02:25:42.541Z,4.3
2018-03-06T02:26:43.883Z,4.3
2018-03-06T02:27:45.232Z,4.2
2018-03-06T02:28:46.579Z,4.2
2018-03-06T02:29:47.914Z,4.2
2018-03-06T02:30:49.293Z,4.1
2018-03-06T02:31:50.597Z,4.1
2018-03-06T02:32:51.948Z,4.0
2018-03-06T02:33:53.289Z,4.0
2018-03-06T02:34:54.638Z,3.9
2018-03-06T02:35:55.998Z,3.9
2018-03-06T02:36:57.333Z,4.0
2018-03-06T02:37:58.671Z,4.3
2018-03-06T02:39:00.031Z,4.5
2018-03-06T02:40:01.374Z,4.7
2018-03-06T02:41:02.717Z,4.8
2018-03-06T02:42:04.084Z,4.9
2018-03-06T02:43:05.431Z,5.0
2018-03-06T02:44:06.779Z,5.0
2018-03-06T02:45:08.131Z,5.1
2018-03-06T02:46:09.476Z,4.9
2018-03-06T02:47:10.877Z,4.9
2018-03-06T02:48:12.171Z,4.7
2018-03-06T02:49:13.521Z,4.8
2018-03-06T02:50:14.871Z,4.8
2018-03-06T02:51:16.175Z,4.8
2018-03-06T02:52:17.517Z,4.9
2018-03-06T02:53:18.867Z,4.9
2018-03-06T02:54:20.208Z,4.8
2018-03-06T02:55:21.558Z,4.7
2018-03-06T02:56:22.907Z,4.7
2018-03-06T02:57:24.252Z,4.6
2018-03-06T02:58:25.605Z,4.6
2018-03-06T02:59:26.911Z,4.6
2018-03-06T03:00:28.253Z,4.8
2018-03-06T03:01:29.606Z,4.8
2018-03-06T03:02:31.511Z,4.7
2018-03-06T03:03:32.810Z,4.8
2018-03-06T03:04:34.167Z,4.9
2018-03-06T03:05:35.506Z,5.0
2018-03-06T03:06:36.851Z,5.0
2018-03-06T03:07:38.197Z,5.0
2018-03-06T03:08:39.553Z,5.1
2018-03-06T03:09:40.894Z,5.2
2018-03-06T03:10:42.242Z,5.1
2018-03-06T03:11:43.591Z,5.1
2018-03-06T03:12:44.939Z,5.2
2018-03-06T03:13:46.286Z,5.3
2018-03-06T03:14:47.593Z,5.2
2018-03-06T03:15:48.935Z,5.3
2018-03-06T03:16:50.283Z,5.2
2018-03-06T03:17:51.624Z,5.3
2018-03-06T03:18:52.971Z,5.4
2018-03-06T03:19:54.331Z,5.4
2018-03-06T03:20:55.681Z,5.3
2018-03-06T03:21:57.026Z,5.3
2018-03-06T03:22:58.378Z,5.4
2018-03-06T03:23:59.721Z,5.4
2018-03-06T03:25:01.076Z,5.4
2018-03-06T03:26:02.432Z,5.3
2018-03-06T03:27:04.674Z,5.3
2018-03-06T03:28:06.017Z,5.4
2018-03-06T03:29:07.367Z,5.3
2018-03-06T03:30:08.674Z,5.3
2018-03-06T03:31:10.019Z,5.3
2018-03-06T03:32:11.376Z,5.3
2018-03-06T03:33:12.725Z,5.3
2018-03-06T03:34:14.073Z,5.4
2018-03-06T03:35:15.424Z,5.3
2018-03-06T03:36:16.768Z,5.3
2018-03-06T03:37:18.112Z,5.4
2018-03-06T03:38:19.462Z,5.3
2018-03-06T03:39:20.816Z,5.3
2018-03-06T03:40:22.165Z,5.3
2018-03-06T03:41:23.513Z,5.4
2018-03-06T03:42:24.856Z,5.3
2018-03-06T03:43:26.204Z,5.2
2018-03-06T03:44:27.548Z,5.3
2018-03-06T03:45:28.899Z,5.3
2018-03-06T03:46:30.247Z,5.3
2018-03-06T03:47:31.552Z,5.4
2018-03-06T03:48:32.919Z,5.3
2018-03-06T03:49:34.194Z,5.3
2018-03-06T03:50:35.546Z,5.3
2018-03-06T03:51:36.892Z,5.3
2018-03-06T03:52:38.236Z,5.3
2018-03-06T03:53:39.543Z,5.4
2018-03-06T03:54:40.892Z,5.4
2018-03-06T03:55:42.231Z,5.4
2018-03-06T03:56:43.575Z,5.4
2018-03-06T03:57:44.877Z,5.5
2018-03-06T03:58:46.228Z,5.4
2018-03-06T03:59:47.570Z,5.4
2018-03-06T04:00:48.958Z,5.4
2018-03-06T04:01:50.300Z,5.4
2018-03-06T04:02:51.646Z,5.5
2018-03-06T04:03:52.996Z,5.4
2018-03-06T04:04:54.298Z,5.4
2018-03-06T04:05:55.650Z,5.4
2018-03-06T04:06:56.992Z,5.4
2018-03-06T04:07:58.334Z,5.5
2018-03-06T04:08:59.687Z,5.5
2018-03-06T04:10:01.036Z,5.4
2018-03-06T04:11:02.377Z,5.4
2018-03-06T04:12:04.649Z,5.4
2018-03-06T04:13:06.001Z,5.4
2018-03-06T04:14:07.349Z,5.3
2018-03-06T04:15:08.699Z,5.4
2018-03-06T04:16:10.045Z,5.3
2018-03-06T04:17:11.384Z,5.3
2018-03-06T04:18:12.732Z,5.3
2018-03-06T04:19:14.075Z,5.3
2018-03-06T04:20:15.422Z,5.3
2018-03-06T04:21:16.760Z,5.3
2018-03-06T04:22:18.119Z,5.3
2018-03-06T04:23:19.461Z,5.4
2018-03-06T04:24:20.859Z,5.3
2018-03-06T04:25:22.110Z,5.3
2018-03-06T04:26:23.452Z,5.3
2018-03-06T04:27:24.814Z,5.2
2018-03-06T04:28:26.155Z,5.3
2018-03-06T04:29:27.460Z,5.2
2018-03-06T04:30:28.807Z,5.2
2018-03-06T04:31:30.156Z,5.2
2018-03-06T04:32:31.498Z,5.3
2018-03-06T04:33:32.848Z,5.2
2018-03-06T04:34:34.186Z,5.1
2018-03-06T04:35:35.546Z,5.1
2018-03-06T04:36:36.898Z,5.2
2018-03-06T04:37:38.242Z,5.2
2018-03-06T04:38:39.583Z,5.2
2018-03-06T04:39:40.935Z,5.1
2018-03-06T04:40:42.277Z,5.2
2018-03-06T04:41:43.626Z,5.1
2018-03-06T04:42:44.967Z,5.1
2018-03-06T04:43:46.283Z,5.1
2018-03-06T04:44:47.623Z,5.0
2018-03-06T04:45:48.962Z,5.1
2018-03-06T04:46:50.301Z,5.1
2018-03-06T04:47:51.609Z,5.0
2018-03-06T04:48:52.966Z,5.0
2018-03-06T04:49:54.330Z,4.9
2018-03-06T04:50:55.682Z,4.9
2018-03-06T04:51:56.990Z,5.0
2018-03-06T04:52:58.334Z,4.9
2018-03-06T04:53:59.682Z,5.0
2018-03-06T04:55:00.987Z,4.9
2018-03-06T04:56:02.333Z,4.9
2018-03-06T04:57:04.497Z,4.9
2018-03-06T04:58:05.845Z,5.0
2018-03-06T04:59:07.218Z,4.9
2018-03-06T05:00:08.562Z,4.8
2018-03-06T05:01:09.909Z,4.8
2018-03-06T05:02:11.264Z,4.9
2018-03-06T05:03:12.570Z,4.8
2018-03-06T05:04:13.922Z,4.8
2018-03-06T05:05:15.268Z,4.7
2018-03-06T05:06:16.613Z,4.7
2018-03-06T05:07:17.918Z,4.8
2018-03-06T05:08:19.266Z,4.7
2018-03-06T05:09:20.611Z,4.7
2018-03-06T05:10:21.952Z,4.7
2018-03-06T05:11:23.302Z,4.6
2018-03-06T05:12:24.644Z,4.6
2018-03-06T05:13:25.992Z,4.7
2018-03-06T05:14:27.336Z,4.7
2018-03-06T05:15:28.682Z,4.7
2018-03-06T05:16:30.055Z,4.6
2018-03-06T05:17:31.403Z,4.7
2018-03-06T05:18:32.709Z,4.5
2018-03-06T05:19:35.784Z,4.6
2018-03-06T05:20:37.123Z,4.5
2018-03-06T05:21:38.470Z,4.6
2018-03-06T05:22:39.812Z,4.5
2018-03-06T05:23:41.160Z,4.5
2018-03-06T05:24:42.505Z,4.5
2018-03-06T05:25:43.855Z,4.4
2018-03-06T05:26:45.163Z,4.4
2018-03-06T05:27:46.515Z,4.5
2018-03-06T05:28:47.857Z,4.4
2018-03-06T05:29:49.198Z,4.5
2018-03-06T05:30:50.546Z,4.4
2018-03-06T05:31:51.893Z,4.4
2018-03-06T05:32:53.234Z,4.3
2018-03-06T05:33:54.580Z,4.3
2018-03-06T05:34:55.951Z,4.2
2018-03-06T05:35:57.293Z,4.3
2018-03-06T05:36:58.639Z,4.2
2018-03-06T05:37:59.984Z,4.1
2018-03-06T05:39:01.348Z,4.1
2018-03-06T05:40:02.656Z,4.1
2018-03-06T05:41:03.995Z,4.1
2018-03-06T05:42:05.359Z,4.1
2018-03-06T05:43:06.706Z,4.1
2018-03-06T05:44:08.054Z,4.0
2018-03-06T05:45:09.430Z,4.1
2018-03-06T05:46:10.775Z,3.9
2018-03-06T05:47:12.120Z,3.9
2018-03-06T05:48:13.471Z,3.9
2018-03-06T05:49:14.820Z,3.9
2018-03-06T05:50:16.170Z,3.9
2018-03-06T05:51:17.484Z,3.9
2018-03-06T05:52:18.829Z,3.9
2018-03-06T05:53:20.194Z,3.8
2018-03-06T05:54:21.641Z,3.8
2018-03-06T05:55:22.995Z,3.7
2018-03-06T05:56:24.337Z,3.8
2018-03-06T05:57:25.679Z,3.7
2018-03-06T05:58:27.036Z,3.7
2018-03-06T05:59:28.384Z,3.7
2018-03-06T06:00:29.734Z,3.7
2018-03-06T06:01:31.082Z,3.7
2018-03-06T06:02:32.439Z,3.5
2018-03-06T06:03:33.826Z,3.6
2018-03-06T06:04:35.179Z,3.6
2018-03-06T06:05:36.519Z,3.5
2018-03-06T06:06:37.876Z,3.5
2018-03-06T06:07:39.186Z,3.4
2018-03-06T06:08:40.540Z,3.5
2018-03-06T06:09:41.847Z,3.4
2018-03-06T06:10:43.198Z,3.4
2018-03-06T06:11:44.547Z,3.3
2018-03-06T06:12:45.853Z,3.2
2018-03-06T06:13:47.199Z,3.3
2018-03-06T06:14:48.543Z,3.2
2018-03-06T06:15:49.890Z,3.3
2018-03-06T06:16:51.246Z,3.1
2018-03-06T06:17:52.592Z,3.1
2018-03-06T06:18:53.938Z,3.1
2018-03-06T06:19:55.304Z,3.0
2018-03-06T06:20:56.659Z,3.0
2018-03-06T06:21:58.016Z,2.9
2018-03-06T06:22:59.371Z,2.9
2018-03-06T06:24:00.724Z,2.8
2018-03-06T06:25:02.093Z,2.8
2018-03-06T06:26:03.461Z,2.8
2018-03-06T06:27:04.810Z,2.7
2018-03-06T06:28:06.160Z,2.6
2018-03-06T06:29:07.517Z,2.7
2018-03-06T06:30:09.457Z,2.6
2018-03-06T06:31:11.700Z,2.6
2018-03-06T06:32:13.240Z,2.6
2018-03-06T06:33:15.044Z,2.5
2018-03-06T06:34:17.612Z,2.6
2018-03-06T06:35:19.396Z,2.5
2018-03-06T06:36:20.911Z,2.6
2018-03-06T06:37:22.556Z,2.5
2018-03-06T06:38:23.931Z,2.5
2018-03-06T06:39:25.286Z,2.6
2018-03-06T06:40:26.630Z,2.6
2018-03-06T06:41:27.983Z,2.4
2018-03-06T06:42:29.323Z,2.5
2018-03-06T06:43:30.680Z,2.5
2018-03-06T06:44:31.990Z,2.4
2018-03-06T06:45:33.357Z,2.5
2018-03-06T06:46:35.041Z,2.5
2018-03-06T06:47:36.385Z,2.4
2018-03-06T06:48:37.733Z,2.5
2018-03-06T06:49:39.085Z,2.5
2018-03-06T06:50:40.433Z,2.4
2018-03-06T06:51:41.790Z,2.5
2018-03-06T06:52:43.137Z,2.5
2018-03-06T06:53:44.492Z,2.4
2018-03-06T06:54:45.845Z,2.4
2018-03-06T06:55:47.195Z,2.5
2018-03-06T06:56:48.546Z,2.5
2018-03-06T06:57:49.913Z,2.5
2018-03-06T06:58:51.324Z,2.5
2018-03-06T06:59:52.674Z,2.4
2018-03-06T07:00:54.024Z,2.4
2018-03-06T07:01:55.377Z,2.4
2018-03-06T07:02:56.726Z,2.4
2018-03-06T07:03:58.075Z,2.5
2018-03-06T07:04:59.435Z,2.4
2018-03-06T07:06:00.782Z,2.5
2018-03-06T07:07:02.130Z,2.4
2018-03-06T07:08:04.234Z,2.4
2018-03-06T07:09:05.589Z,2.4
2018-03-06T07:10:06.941Z,2.5
2018-03-06T07:11:08.305Z,2.4
2018-03-06T07:12:09.661Z,2.4
2018-03-06T07:13:11.018Z,2.5
2018-03-06T07:14:12.357Z,2.4
2018-03-06T07:15:13.714Z,2.5
2018-03-06T07:16:15.061Z,2.5
2018-03-06T07:17:16.412Z,2.6
2018-03-06T07:18:17.760Z,2.5
2018-03-06T07:19:19.112Z,2.6
2018-03-06T07:20:20.472Z,2.6
2018-03-06T07:21:21.823Z,2.6
2018-03-06T07:22:23.169Z,2.6
2018-03-06T07:23:24.521Z,2.6
2018-03-06T07:24:25.869Z,2.6
2018-03-06T07:25:27.219Z,2.7
2018-03-06T07:26:28.603Z,2.7
2018-03-06T07:27:29.919Z,2.8
2018-03-06T07:28:31.280Z,2.9
2018-03-06T07:29:32.638Z,2.9
2018-03-06T07:30:34.005Z,2.9
2018-03-06T07:31:35.357Z,2.9
2018-03-06T07:32:36.715Z,3.0
2018-03-06T07:33:38.074Z,3.0
2018-03-06T07:34:39.446Z,3.1
2018-03-06T07:35:40.798Z,3.0
2018-03-06T07:36:42.154Z,3.1
2018-03-06T07:37:43.525Z,3.1
2018-03-06T07:38:44.876Z,3.1
2018-03-06T07:39:46.231Z,3.1
2018-03-06T07:40:47.638Z,3.1
2018-03-06T07:41:49.019Z,3.2
2018-03-06T07:42:50.349Z,3.1
2018-03-06T07:43:51.709Z,3.2
2018-03-06T07:44:53.062Z,3.3
2018-03-06T07:45:54.412Z,3.3
2018-03-06T07:46:55.765Z,3.4
2018-03-06T07:47:57.115Z,3.4
2018-03-06T07:48:58.498Z,3.4
2018-03-06T07:49:59.829Z,3.5
2018-03-06T07:51:01.191Z,3.5
2018-03-06T07:52:02.556Z,3.6
2018-03-06T07:53:03.907Z,3.6
2018-03-06T07:54:05.258Z,3.6
2018-03-06T07:55:06.619Z,3.6
2018-03-06T07:56:07.980Z,3.6
2018-03-06T07:57:09.348Z,3.7
2018-03-06T07:58:10.693Z,3.8
2018-03-06T07:59:12.058Z,3.7
2018-03-06T08:00:13.408Z,3.8
2018-03-06T08:01:14.761Z,3.8
2018-03-06T08:02:16.124Z,3.8
2018-03-06T08:03:17.492Z,3.7
2018-03-06T08:04:18.857Z,3.9
2018-03-06T08:05:20.214Z,3.9
2018-03-06T08:06:21.574Z,3.9
2018-03-06T08:07:22.933Z,4.0
2018-03-06T08:08:24.287Z,4.1
2018-03-06T08:09:25.644Z,4.1
2018-03-06T08:10:26.994Z,4.2
2018-03-06T08:11:28.343Z,4.2
2018-03-06T08:12:29.705Z,4.3
2018-03-06T08:13:31.063Z,4.3
2018-03-06T08:14:32.414Z,4.4
2018-03-06T08:15:34.706Z,4.5
2018-03-06T08:16:36.065Z,4.5
2018-03-06T08:17:37.421Z,4.6
2018-03-06T08:18:38.784Z,4.6
2018-03-06T08:19:40.143Z,4.7
2018-03-06T08:20:41.491Z,4.7
2018-03-06T08:21:42.856Z,4.8
2018-03-06T08:22:44.223Z,5.0
2018-03-06T08:23:45.590Z,5.0
2018-03-06T08:24:46.949Z,5.1
2018-03-06T08:25:48.308Z,5.1
2018-03-06T08:26:49.662Z,5.1
2018-03-06T08:27:51.014Z,5.2
2018-03-06T08:28:52.386Z,5.1
2018-03-06T08:29:53.831Z,5.1
2018-03-06T08:30:55.191Z,5.2
2018-03-06T08:31:56.549Z,5.1
2018-03-06T08:32:57.904Z,5.1
2018-03-06T08:33:59.266Z,5.2
2018-03-06T08:35:00.622Z,5.2
2018-03-06T08:36:02.051Z,5.3
2018-03-06T08:37:03.430Z,5.2
2018-03-06T08:38:04.789Z,5.3
2018-03-06T08:39:06.149Z,5.3
2018-03-06T08:40:07.509Z,5.4
2018-03-06T08:41:08.869Z,5.3
2018-03-06T08:42:10.234Z,5.4
2018-03-06T08:43:11.597Z,5.4
2018-03-06T08:44:12.950Z,5.4
2018-03-06T08:45:14.303Z,5.4
2018-03-06T08:46:15.663Z,5.4
2018-03-06T08:47:17.024Z,5.6
2018-03-06T08:48:18.384Z,5.7
2018-03-06T08:49:19.742Z,5.7
2018-03-06T08:50:21.098Z,5.7
2018-03-06T08:51:22.460Z,5.8
2018-03-06T08:52:23.891Z,5.8
2018-03-06T08:53:25.207Z,5.8
2018-03-06T08:54:26.566Z,5.9
2018-03-06T08:55:27.926Z,6.0
2018-03-06T08:56:29.280Z,6.1
2018-03-06T08:57:30.629Z,6.1
2018-03-06T08:58:32.011Z,6.0
2018-03-06T08:59:33.386Z,6.0
2018-03-06T09:00:34.752Z,6.1
2018-03-06T09:01:36.113Z,6.1
2018-03-06T09:02:37.484Z,6.1
2018-03-06T09:03:38.871Z,6.1
2018-03-06T09:04:40.218Z,6.2
2018-03-06T09:05:41.581Z,6.4
2018-03-06T09:06:42.943Z,6.4
2018-03-06T09:07:44.301Z,6.4
2018-03-06T09:08:45.672Z,6.5
2018-03-06T09:09:47.041Z,6.5
2018-03-06T09:10:48.405Z,6.5
2018-03-06T09:11:49.759Z,6.5
2018-03-06T09:12:51.130Z,6.6
2018-03-06T09:13:52.495Z,6.7
2018-03-06T09:14:53.850Z,6.7
2018-03-06T09:15:55.210Z,6.7
2018-03-06T09:16:56.609Z,6.6
2018-03-06T09:17:57.978Z,6.6
2018-03-06T09:18:59.338Z,6.8
2018-03-06T09:20:00.690Z,6.9
2018-03-06T09:21:02.059Z,6.9
2018-03-06T09:22:04.116Z,6.9
2018-03-06T09:23:05.645Z,7.0
2018-03-06T09:24:07.041Z,7.1
2018-03-06T09:25:08.454Z,7.2
2018-03-06T09:26:09.827Z,7.3
2018-03-06T09:27:11.196Z,7.3
2018-03-06T09:28:12.550Z,7.2
2018-03-06T09:29:13.930Z,7.2
2018-03-06T09:30:15.296Z,7.4
2018-03-06T09:31:16.674Z,7.4
2018-03-06T09:32:18.032Z,7.3
2018-03-06T09:33:19.394Z,7.4
2018-03-06T09:34:20.753Z,7.5
2018-03-06T09:35:22.122Z,7.5
2018-03-06T09:36:23.494Z,7.6
2018-03-06T09:37:24.860Z,7.6
2018-03-06T09:38:26.224Z,7.6
2018-03-06T09:39:27.586Z,7.5
2018-03-06T09:40:28.966Z,7.6
2018-03-06T09:41:30.320Z,7.6
2018-03-06T09:42:31.684Z,7.5
2018-03-06T09:43:33.062Z,7.4
2018-03-06T09:44:34.430Z,7.4
2018-03-06T09:45:35.801Z,7.5
2018-03-06T09:46:37.169Z,7.5
2018-03-06T09:47:38.541Z,7.6
2018-03-06T09:48:39.891Z,7.6
2018-03-06T09:49:41.257Z,7.6
2018-03-06T09:50:42.627Z,7.6
2018-03-06T09:51:43.999Z,7.6
2018-03-06T09:52:45.366Z,7.7
2018-03-06T09:53:46.732Z,7.7
2018-03-06T09:54:48.097Z,7.7
2018-03-06T09:55:49.469Z,7.7
2018-03-06T09:56:50.831Z,7.7
2018-03-06T09:57:52.201Z,7.7
2018-03-06T09:58:53.575Z,7.7
2018-03-06T09:59:54.938Z,7.7
2018-03-06T10:00:56.372Z,7.7
2018-03-06T10:01:57.733Z,7.7
2018-03-06T10:02:59.117Z,7.7
2018-03-06T10:04:00.480Z,7.8
2018-03-06T10:05:01.852Z,7.9
2018-03-06T10:06:03.247Z,8.0
2018-03-06T10:07:04.576Z,8.0
2018-03-06T10:08:05.984Z,8.0
2018-03-06T10:09:07.315Z,8.0
2018-03-06T10:10:08.699Z,8.1
2018-03-06T10:11:10.061Z,8.1
2018-03-06T10:12:11.420Z,8.2
2018-03-06T10:13:12.796Z,8.3
2018-03-06T10:14:14.165Z,8.2
2018-03-06T10:15:15.542Z,8.3
2018-03-06T10:16:16.884Z,8.3
2018-03-06T10:17:18.250Z,8.3
2018-03-06T10:18:19.620Z,8.2
2018-03-06T10:19:20.985Z,8.3
2018-03-06T10:20:22.355Z,8.3
2018-03-06T10:21:23.724Z,8.2
2018-03-06T10:22:25.132Z,8.2
2018-03-06T10:23:26.747Z,8.0
2018-03-06T10:24:28.052Z,8.0
2018-03-06T10:25:29.409Z,8.0
2018-03-06T10:26:30.787Z,8.0
2018-03-06T10:27:32.154Z,8.0
2018-03-06T10:28:33.576Z,8.1
2018-03-06T10:29:35.069Z,8.1
2018-03-06T10:30:36.431Z,8.0
2018-03-06T10:31:37.800Z,8.0
2018-03-06T10:32:39.161Z,8.0
2018-03-06T10:33:40.529Z,8.0
2018-03-06T10:34:41.896Z,8.0
2018-03-06T10:35:43.260Z,8.0
2018-03-06T10:36:44.621Z,8.1
2018-03-06T10:37:45.991Z,8.1
2018-03-06T10:38:47.357Z,8.2
2018-03-06T10:39:48.726Z,8.3
2018-03-06T10:40:50.090Z,8.3
2018-03-06T10:41:51.482Z,8.3
2018-03-06T10:42:52.870Z,8.4
2018-03-06T10:43:54.296Z,8.4
2018-03-06T10:44:55.636Z,8.5
2018-03-06T10:45:57.024Z,8.5
2018-03-06T10:46:58.406Z,8.5
2018-03-06T10:47:59.768Z,8.5
2018-03-06T10:49:01.133Z,8.5
2018-03-06T10:50:02.499Z,8.5
2018-03-06T10:51:03.871Z,8.5
2018-03-06T10:52:05.235Z,8.7
2018-03-06T10:53:06.593Z,8.6
2018-03-06T10:54:07.965Z,8.6
2018-03-06T10:55:09.917Z,8.6
2018-03-06T10:56:11.246Z,8.6
2018-03-06T10:57:12.618Z,8.6
2018-03-06T10:58:13.981Z,8.7
2018-03-06T10:59:15.346Z,8.6
2018-03-06T11:00:16.706Z,8.7
2018-03-06T11:01:18.123Z,8.7
2018-03-06T11:02:19.475Z,8.7
2018-03-06T11:03:20.864Z,8.8
2018-03-06T11:04:22.262Z,8.9
2018-03-06T11:05:23.604Z,8.8
2018-03-06T11:06:24.976Z,8.8
2018-03-06T11:07:26.325Z,8.8
2018-03-06T11:08:27.739Z,8.7
2018-03-06T11:09:29.114Z,8.8
2018-03-06T11:10:30.478Z,8.8
2018-03-06T11:11:31.952Z,8.7
2018-03-06T11:12:33.382Z,8.7
2018-03-06T11:13:34.741Z,8.7
2018-03-06T11:14:36.107Z,8.7
2018-03-06T11:15:37.479Z,8.8
2018-03-06T11:16:38.867Z,8.7
2018-03-06T11:17:40.231Z,8.7
2018-03-06T11:18:41.593Z,8.7
2018-03-06T11:19:42.953Z,8.6
2018-03-06T11:20:44.309Z,8.7
2018-03-06T11:21:45.661Z,8.7
2018-03-06T11:22:47.023Z,8.7
2018-03-06T11:23:48.405Z,8.7
2018-03-06T11:24:49.763Z,8.7
2018-03-06T11:25:51.129Z,8.7
2018-03-06T11:26:52.493Z,8.7
2018-03-06T11:27:53.854Z,8.7
2018-03-06T11:28:55.216Z,8.6
2018-03-06T11:29:56.571Z,8.6
2018-03-06T11:30:58.024Z,8.7
2018-03-06T11:31:59.384Z,8.8
2018-03-06T11:33:00.752Z,8.9
2018-03-06T11:34:02.149Z,8.9
2018-03-06T11:35:03.552Z,9.0
2018-03-06T11:36:04.915Z,9.0
2018-03-06T11:37:06.280Z,9.0
2018-03-06T11:38:07.648Z,8.9
2018-03-06T11:39:09.067Z,9.0
2018-03-06T11:40:10.440Z,9.1
2018-03-06T11:41:11.801Z,9.2
2018-03-06T11:42:13.185Z,9.1
2018-03-06T11:43:14.548Z,9.2
2018-03-06T11:44:15.923Z,9.1
2018-03-06T11:45:17.288Z,9.2
2018-03-06T11:46:18.656Z,9.2
2018-03-06T11:47:20.023Z,9.3
2018-03-06T11:48:21.391Z,9.2
2018-03-06T11:49:22.787Z,9.2
2018-03-06T11:50:24.180Z,9.1
2018-03-06T11:51:25.577Z,9.1
2018-03-06T11:52:26.958Z,9.1
2018-03-06T11:53:28.387Z,9.1
2018-03-06T11:54:29.760Z,8.9
2018-03-06T11:55:31.118Z,9.0
2018-03-06T11:56:32.503Z,9.0
2018-03-06T11:57:33.866Z,9.1
2018-03-06T11:58:35.265Z,9.2
2018-03-06T11:59:36.618Z,9.1
2018-03-06T12:00:37.988Z,9.3
2018-03-06T12:01:39.377Z,9.3
2018-03-06T12:02:40.749Z,9.2
2018-03-06T12:03:42.107Z,9.3
2018-03-06T12:04:43.474Z,9.3
2018-03-06T12:05:44.854Z,9.4
2018-03-06T12:06:46.227Z,9.4
2018-03-06T12:07:47.603Z,9.4
2018-03-06T12:08:48.966Z,9.4
2018-03-06T12:09:50.330Z,9.4
2018-03-06T12:10:51.705Z,9.4
2018-03-06T12:11:53.065Z,9.4
2018-03-06T12:12:54.433Z,9.5
2018-03-06T12:13:55.795Z,9.5
2018-03-06T12:14:57.166Z,9.6
2018-03-06T12:15:58.536Z,9.6
2018-03-06T12:16:59.906Z,9.6
2018-03-06T12:18:01.270Z,9.6
2018-03-06T12:19:02.630Z,9.6
2018-03-06T12:20:04.871Z,9.8
2018-03-06T12:21:06.239Z,9.8
2018-03-06T12:22:07.602Z,9.8
2018-03-06T12:23:08.968Z,9.8
2018-03-06T12:24:10.364Z,9.8
2018-03-06T12:25:11.728Z,9.9
2018-03-06T12:26:13.093Z,9.9
2018-03-06T12:27:14.470Z,10.0
2018-03-06T12:28:15.838Z,10.1
2018-03-06T12:29:17.202Z,10.0
2018-03-06T12:30:18.566Z,10.1
2018-03-06T12:31:19.946Z,10.1
2018-03-06T12:32:21.318Z,10.1
2018-03-06T12:33:22.679Z,10.1
2018-03-06T12:34:24.048Z,10.1
2018-03-06T12:35:25.434Z,10.2
2018-03-06T12:36:26.787Z,10.2
2018-03-06T12:37:28.168Z,10.2
2018-03-06T12:38:29.520Z,10.2
2018-03-06T12:39:30.884Z,10.2
2018-03-06T12:40:32.255Z,10.2
2018-03-06T12:41:33.632Z,10.1
2018-03-06T12:42:35.621Z,10.2
2018-03-06T12:43:36.989Z,10.1
2018-03-06T12:44:38.358Z,10.2
2018-03-06T12:45:39.724Z,10.2
2018-03-06T12:46:41.092Z,10.2
2018-03-06T12:47:42.464Z,10.3
2018-03-06T12:48:43.840Z,10.2
2018-03-06T12:49:45.211Z,10.3
2018-03-06T12:50:46.582Z,10.3
2018-03-06T12:51:47.955Z,10.3
2018-03-06T12:52:49.321Z,10.4
2018-03-06T12:53:50.696Z,10.4
2018-03-06T12:54:52.138Z,10.4
2018-03-06T12:55:53.442Z,10.4
2018-03-06T12:56:54.816Z,10.5
2018-03-06T12:57:56.189Z,10.5
2018-03-06T12:58:57.558Z,10.6
2018-03-06T12:59:58.928Z,10.6
2018-03-06T13:01:00.300Z,10.5
2018-03-06T13:02:01.974Z,10.6
2018-03-06T13:03:03.391Z,10.6
2018-03-06T13:04:04.767Z,10.6
2018-03-06T13:05:06.173Z,10.7
2018-03-06T13:06:07.503Z,10.7
2018-03-06T13:07:08.889Z,10.7
2018-03-06T13:08:10.253Z,10.7
2018-03-06T13:09:11.620Z,10.8
2018-03-06T13:10:13.014Z,10.9
2018-03-06T13:11:15.358Z,10.9
2018-03-06T13:12:16.734Z,11.0
2018-03-06T13:13:18.105Z,11.0
2018-03-06T13:14:19.472Z,11.1
2018-03-06T13:15:20.846Z,11.0
2018-03-06T13:16:22.214Z,11.1
2018-03-06T13:17:23.899Z,11.1
2018-03-06T13:18:25.245Z,11.1
2018-03-06T13:19:26.859Z,11.1
2018-03-06T13:20:28.625Z,11.1
2018-03-06T13:21:30.319Z,11.0
2018-03-06T13:22:31.694Z,11.0
2018-03-06T13:23:33.659Z,10.9
2018-03-06T13:24:35.049Z,11.0
2018-03-06T13:25:36.589Z,11.1
2018-03-06T13:26:37.957Z,11.2
2018-03-06T13:27:40.925Z,11.0
2018-03-06T13:28:43.006Z,11.0
2018-03-06T13:29:44.403Z,11.1
2018-03-06T13:30:45.960Z,11.3
2018-03-06T13:31:47.347Z,11.3
2018-03-06T13:32:49.000Z,11.2
2018-03-06T13:33:50.677Z,11.1
2018-03-06T13:34:52.381Z,11.0
2018-03-06T13:35:53.750Z,10.9
2018-03-06T13:36:55.196Z,10.9
2018-03-06T13:37:57.950Z,10.8
2018-03-06T13:38:59.365Z,10.8
2018-03-06T13:40:00.731Z,10.9
2018-03-06T13:41:02.184Z,10.9
2018-03-06T13:42:04.072Z,11.0
2018-03-06T13:43:05.942Z,11.0
2018-03-06T13:44:09.154Z,11.0
2018-03-06T13:45:12.436Z,11.1
2018-03-06T13:46:14.156Z,11.1
2018-03-06T13:47:15.587Z,11.1
2018-03-06T13:48:16.960Z,11.0
2018-03-06T13:49:18.324Z,11.0
2018-03-06T13:50:19.690Z,11.0
2018-03-06T13:51:21.062Z,11.1
2018-03-06T13:52:22.448Z,11.0
2018-03-06T13:53:23.823Z,11.1
2018-03-06T13:54:25.189Z,11.0
2018-03-06T13:55:26.559Z,10.9
2018-03-06T13:56:27.930Z,10.9
2018-03-06T13:57:29.301Z,10.9
2018-03-06T13:58:30.699Z,10.9
2018-03-06T13:59:32.062Z,10.9
2018-03-06T14:00:34.572Z,10.9
2018-03-06T14:01:36.252Z,11.0